createdAt,value
2023-09-14T00:00:56.227Z,100390.41
2023-09-14T00:03:23.223Z,100381.34
2023-09-14T00:05:51.409Z,100378.97
2023-09-14T00:08:18.658Z,100376.19
2023-09-14T00:10:45.426Z,100386.03
2023-09-14T00:13:12.269Z,100383.72
2023-09-14T00:15:42.141Z,100373.38
2023-09-14T00:18:09.670Z,100366.19
2023-09-14T00:20:36.467Z,100375.00
2023-09-14T00:23:04.828Z,100375.13
2023-09-14T00:25:31.772Z,100383.25
2023-09-14T00:27:59.020Z,100394.16
2023-09-14T00:30:25.827Z,100396.38
2023-09-14T00:32:54.060Z,100397.09
2023-09-14T00:35:21.254Z,100404.38
2023-09-14T00:37:49.344Z,100409.56
2023-09-14T00:40:17.187Z,100396.75
2023-09-14T00:42:49.449Z,100393.09
2023-09-14T00:45:18.556Z,100395.22
2023-09-14T00:47:48.147Z,100386.31
2023-09-14T00:50:17.942Z,100385.72
2023-09-14T00:52:53.126Z,100383.97
2023-09-14T00:55:20.337Z,100383.25
2023-09-14T00:57:53.480Z,100378.44
2023-09-14T01:00:21.500Z,100382.44
2023-09-14T01:02:53.205Z,100375.25
2023-09-14T01:05:21.787Z,100379.16
2023-09-14T01:07:49.161Z,100378.06
2023-09-14T01:10:16.904Z,100382.31
2023-09-14T01:12:47.488Z,100382.56
2023-09-14T01:15:21.836Z,100387.03
2023-09-14T01:18:02.561Z,100386.41
2023-09-14T01:20:42.847Z,100384.41
2023-09-14T01:23:48.905Z,100383.38
2023-09-14T01:26:17.013Z,100375.03
2023-09-14T01:28:44.104Z,100375.84
2023-09-14T01:31:11.298Z,100381.25
2023-09-14T01:33:38.949Z,100382.44
2023-09-14T01:36:19.026Z,100385.38
2023-09-14T01:38:48.265Z,100380.66
2023-09-14T01:41:16.444Z,100381.13
2023-09-14T01:43:46.496Z,100377.50
2023-09-14T01:46:14.087Z,100381.84
2023-09-14T01:48:41.034Z,100381.59
2023-09-14T01:51:07.891Z,100378.31
2023-09-14T01:53:34.903Z,100378.19
2023-09-14T01:56:01.718Z,100381.25
2023-09-14T01:58:30.471Z,100380.88
2023-09-14T02:00:58.020Z,100377.25
2023-09-14T02:03:25.326Z,100384.06
2023-09-14T02:06:02.446Z,100384.91
2023-09-14T02:08:33.165Z,100390.88
2023-09-14T02:11:01.789Z,100392.63
2023-09-14T02:13:30.101Z,100404.06
2023-09-14T02:15:57.446Z,100397.47
2023-09-14T02:18:24.270Z,100401.09
2023-09-14T02:20:51.085Z,100402.06
2023-09-14T02:23:19.036Z,100402.06
2023-09-14T02:25:46.490Z,100401.94
2023-09-14T02:28:15.235Z,100403.91
2023-09-14T02:30:43.641Z,100403.09
2023-09-14T02:33:10.601Z,100407.66
2023-09-14T02:35:38.104Z,100410.38
2023-09-14T02:38:05.144Z,100420.72
2023-09-14T02:40:32.927Z,100420.34
2023-09-14T02:43:00.438Z,100408.00
2023-09-14T02:45:27.358Z,100409.28
2023-09-14T02:47:54.226Z,100413.31
2023-09-14T02:50:21.944Z,100412.94
2023-09-14T02:52:48.837Z,100420.47
2023-09-14T02:55:15.740Z,100421.84
2023-09-14T02:57:43.483Z,100416.66
2023-09-14T03:00:13.812Z,100411.50
2023-09-14T03:02:41.715Z,100418.53
2023-09-14T03:05:10.644Z,100422.00
2023-09-14T03:07:38.269Z,100421.56
2023-09-14T03:10:06.185Z,100422.72
2023-09-14T03:12:33.607Z,100418.72
2023-09-14T03:15:00.438Z,100426.22
2023-09-14T03:17:27.420Z,100427.19
2023-09-14T03:19:54.730Z,100425.78
2023-09-14T03:22:21.618Z,100425.41
2023-09-14T03:24:48.468Z,100430.41
2023-09-14T03:27:15.333Z,100427.94
2023-09-14T03:29:42.650Z,100428.63
2023-09-14T03:32:09.516Z,100433.66
2023-09-14T03:34:36.402Z,100436.56
2023-09-14T03:37:04.847Z,100442.13
2023-09-14T03:39:31.842Z,100444.59
2023-09-14T03:41:58.882Z,100446.25
2023-09-14T03:44:25.642Z,100431.19
2023-09-14T03:46:52.471Z,100438.47
2023-09-14T03:49:19.272Z,100442.59
2023-09-14T03:51:46.350Z,100436.13
2023-09-14T03:54:13.177Z,100435.31
2023-09-14T03:56:40.274Z,100428.47
2023-09-14T03:59:07.067Z,100430.88
2023-09-14T04:01:34.054Z,100426.66
2023-09-14T04:04:01.088Z,100430.00
2023-09-14T04:06:28.202Z,100428.91
2023-09-14T04:08:55.037Z,100436.78
2023-09-14T04:11:22.392Z,100440.56
2023-09-14T04:13:50.172Z,100445.75
2023-09-14T04:16:17.070Z,100457.97
2023-09-14T04:18:47.191Z,100457.78
2023-09-14T04:21:14.756Z,100459.03
2023-09-14T04:23:41.523Z,100463.94
2023-09-14T04:26:12.181Z,100466.31
2023-09-14T04:28:39.129Z,100468.06
2023-09-14T04:31:09.607Z,100468.31
2023-09-14T04:33:37.299Z,100469.13
2023-09-14T04:36:06.554Z,100462.59
2023-09-14T04:38:34.762Z,100470.59
2023-09-14T04:41:05.327Z,100465.88
2023-09-14T04:43:33.954Z,100463.88
2023-09-14T04:46:06.049Z,100463.25
2023-09-14T04:48:33.776Z,100475.81
2023-09-14T04:51:01.170Z,100475.22
2023-09-14T04:53:28.699Z,100478.50
2023-09-14T04:55:56.232Z,100472.66
2023-09-14T04:58:26.326Z,100468.78
2023-09-14T05:00:54.302Z,100473.63
2023-09-14T05:03:22.084Z,100476.78
2023-09-14T05:05:55.056Z,100471.03
2023-09-14T05:08:22.777Z,100482.31
2023-09-14T05:10:52.987Z,100481.09
2023-09-14T05:13:24.350Z,100480.66
2023-09-14T05:15:51.882Z,100488.03
2023-09-14T05:18:24.322Z,100490.00
2023-09-14T05:20:51.543Z,100492.94
2023-09-14T05:23:18.476Z,100491.03
2023-09-14T05:25:46.747Z,100500.56
2023-09-14T05:28:14.087Z,100495.00
2023-09-14T05:30:41.499Z,100498.28
2023-09-14T05:33:10.823Z,100505.75
2023-09-14T05:35:38.885Z,100506.56
2023-09-14T05:38:05.889Z,100507.28
2023-09-14T05:40:35.796Z,100510.22
2023-09-14T05:43:02.772Z,100505.06
2023-09-14T05:45:30.216Z,100506.41
2023-09-14T05:47:58.205Z,100513.56
2023-09-14T05:50:25.089Z,100503.59
2023-09-14T05:52:52.016Z,100497.03
2023-09-14T05:55:21.037Z,100499.72
2023-09-14T05:57:49.359Z,100501.59
2023-09-14T06:00:17.130Z,100507.34
2023-09-14T06:02:51.879Z,100505.81
2023-09-14T06:05:25.109Z,100502.69
2023-09-14T06:07:54.898Z,100508.97
2023-09-14T06:10:22.401Z,100507.97
2023-09-14T06:12:51.842Z,100512.19
2023-09-14T06:15:18.847Z,100511.59
2023-09-14T06:17:48.098Z,100514.06
2023-09-14T06:20:15.284Z,100511.34
2023-09-14T06:22:42.172Z,100509.00
2023-09-14T06:25:09.425Z,100520.53
2023-09-14T06:27:36.248Z,100516.06
2023-09-14T06:30:03.668Z,100523.84
2023-09-14T06:32:30.425Z,100531.28
2023-09-14T06:34:57.155Z,100513.84
2023-09-14T06:37:23.879Z,100525.13
2023-09-14T06:39:50.649Z,100529.09
2023-09-14T06:42:17.462Z,100539.78
2023-09-14T06:44:44.263Z,100531.19
2023-09-14T06:47:11.114Z,100544.06
2023-09-14T06:49:37.938Z,100530.59
2023-09-14T06:52:05.040Z,100531.69
2023-09-14T06:54:32.011Z,100535.69
2023-09-14T06:56:59.418Z,100538.13
2023-09-14T06:59:26.477Z,100547.59
2023-09-14T07:01:53.308Z,100546.03
2023-09-14T07:04:20.357Z,100545.69
2023-09-14T07:06:48.053Z,100543.91
2023-09-14T07:09:15.403Z,100559.94
2023-09-14T07:11:42.540Z,100562.41
2023-09-14T07:14:09.416Z,100566.44
2023-09-14T07:16:36.360Z,100566.91
2023-09-14T07:19:03.930Z,100569.53
2023-09-14T07:21:33.621Z,100582.94
2023-09-14T07:24:01.316Z,100581.53
2023-09-14T07:26:28.110Z,100579.78
2023-09-14T07:28:54.889Z,100592.81
2023-09-14T07:31:21.873Z,100580.19
2023-09-14T07:33:49.073Z,100584.31
2023-09-14T07:36:16.337Z,100579.75
2023-09-14T07:38:43.255Z,100592.13
2023-09-14T07:41:10.139Z,100585.66
2023-09-14T07:43:37.374Z,100580.94
2023-09-14T07:46:04.322Z,100587.88
2023-09-14T07:48:32.170Z,100600.81
2023-09-14T07:50:58.915Z,100596.47
2023-09-14T07:53:26.298Z,100604.13
2023-09-14T07:55:56.100Z,100603.06
2023-09-14T07:58:23.291Z,100599.41
2023-09-14T08:00:50.487Z,100599.09
2023-09-14T08:03:17.420Z,100598.84
2023-09-14T08:05:44.619Z,100609.44
2023-09-14T08:08:11.782Z,100608.03
2023-09-14T08:10:38.849Z,100606.31
2023-09-14T08:13:05.797Z,100614.22
2023-09-14T08:15:32.622Z,100618.94
2023-09-14T08:17:59.495Z,100616.34
2023-09-14T08:20:26.278Z,100624.38
2023-09-14T08:22:53.035Z,100628.16
2023-09-14T08:25:19.866Z,100633.59
2023-09-14T08:27:46.720Z,100627.69
2023-09-14T08:30:13.600Z,100629.09
2023-09-14T08:32:40.393Z,100631.28
2023-09-14T08:35:24.860Z,100640.25
2023-09-14T08:37:55.984Z,100644.16
2023-09-14T08:40:23.954Z,100638.59
2023-09-14T08:42:53.191Z,100645.09
2023-09-14T08:45:24.904Z,100646.38
2023-09-14T08:47:52.559Z,100636.97
2023-09-14T08:50:21.192Z,100646.38
2023-09-14T08:52:48.317Z,100639.09
2023-09-14T08:55:18.094Z,100644.63
2023-09-14T08:57:46.230Z,100653.81
2023-09-14T09:00:18.674Z,100659.47
2023-09-14T09:02:47.387Z,100650.28
2023-09-14T09:05:16.216Z,100655.13
2023-09-14T09:07:44.869Z,100654.41
2023-09-14T09:10:24.345Z,100654.41
2023-09-14T09:12:52.849Z,100663.16
2023-09-14T09:15:19.808Z,100665.72
2023-09-14T09:17:46.705Z,100659.03
2023-09-14T09:20:16.195Z,100659.25
2023-09-14T09:22:46.515Z,100663.84
2023-09-14T09:25:14.258Z,100660.19
2023-09-14T09:27:41.111Z,100656.41
2023-09-14T09:30:10.168Z,100659.03
2023-09-14T09:32:39.143Z,100654.44
2023-09-14T09:35:26.453Z,100659.63
2023-09-14T09:37:55.605Z,100653.63
2023-09-14T09:40:24.833Z,100655.38
2023-09-14T09:42:53.502Z,100655.25
2023-09-14T09:45:27.188Z,100656.31
2023-09-14T09:47:54.948Z,100661.22
2023-09-14T09:50:23.583Z,100672.44
2023-09-14T09:52:50.884Z,100664.09
2023-09-14T09:55:26.398Z,100669.38
2023-09-14T09:57:55.602Z,100657.50
2023-09-14T10:00:29.247Z,100668.44
2023-09-14T10:02:56.408Z,100661.25
2023-09-14T10:05:42.148Z,100657.97
2023-09-14T10:08:22.604Z,100657.84
2023-09-14T10:10:53.824Z,100664.34
2023-09-14T10:13:25.960Z,100667.63
2023-09-14T10:15:57.182Z,100669.28
2023-09-14T10:18:26.763Z,100663.63
2023-09-14T10:20:56.429Z,100657.38
2023-09-14T10:23:24.217Z,100675.84
2023-09-14T10:25:52.803Z,100659.03
2023-09-14T10:28:23.528Z,100660.28
2023-09-14T10:30:54.204Z,100659.34
2023-09-14T10:33:21.746Z,100656.28
2023-09-14T10:35:48.794Z,100659.13
2023-09-14T10:38:18.261Z,100660.88
2023-09-14T10:40:46.974Z,100654.28
2023-09-14T10:43:13.861Z,100657.81
2023-09-14T10:45:44.551Z,100655.78
2023-09-14T10:48:17.352Z,100657.22
2023-09-14T10:50:44.337Z,100653.66
2023-09-14T10:53:13.973Z,100650.25
2023-09-14T10:55:43.140Z,100662.88
2023-09-14T10:58:17.567Z,100652.47
2023-09-14T11:00:56.127Z,100652.84
2023-09-14T11:03:26.072Z,100656.25
2023-09-14T11:05:55.685Z,100648.34
2023-09-14T11:11:02.048Z,100648.13
2023-09-14T11:13:36.293Z,100652.38
2023-09-14T11:16:15.915Z,100646.31
2023-09-14T11:18:44.569Z,100644.59
2023-09-14T11:21:34.608Z,100642.22
2023-09-14T11:24:04.904Z,100650.34
2023-09-14T11:26:34.745Z,100646.66
2023-09-14T11:29:03.613Z,100645.59
2023-09-14T11:31:45.866Z,100650.69
2023-09-14T11:34:24.150Z,100651.13
2023-09-14T11:36:57.552Z,100654.41
2023-09-14T11:39:26.666Z,100639.13
2023-09-14T11:41:59.845Z,100644.16
2023-09-14T11:44:44.898Z,100646.28
2023-09-14T11:47:15.328Z,100636.66
2023-09-14T11:49:43.366Z,100635.09
2023-09-14T11:52:12.309Z,100645.59
2023-09-14T11:54:46.499Z,100639.69
2023-09-14T11:57:13.902Z,100630.72
2023-09-14T11:59:40.756Z,100637.88
2023-09-14T12:02:07.693Z,100635.28
2023-09-14T12:04:35.956Z,100633.31
2023-09-14T12:07:04.967Z,100636.16
2023-09-14T12:09:39.828Z,100636.28
2023-09-14T12:12:10.905Z,100621.69
2023-09-14T12:14:45.353Z,100630.25
2023-09-14T12:17:24.217Z,100631.66
2023-09-14T12:19:57.627Z,100625.06
2023-09-14T12:22:27.781Z,100626.81
2023-09-14T12:24:56.145Z,100621.84
2023-09-14T12:27:23.550Z,100628.31
2023-09-14T12:29:51.331Z,100617.44
2023-09-14T12:32:18.586Z,100624.84
2023-09-14T12:34:46.528Z,100602.81
2023-09-14T12:37:17.817Z,100614.00
2023-09-14T12:39:50.276Z,100607.19
2023-09-14T12:42:22.535Z,100613.72
2023-09-14T12:44:50.858Z,100615.81
2023-09-14T12:47:17.806Z,100603.91
2023-09-14T12:49:45.248Z,100624.41
2023-09-14T12:52:12.463Z,100627.94
2023-09-14T12:54:42.302Z,100620.94
2023-09-14T12:57:15.768Z,100619.88
2023-09-14T13:00:00.084Z,100619.59
2023-09-14T13:02:27.493Z,100620.56
2023-09-14T13:04:54.812Z,100630.34
2023-09-14T13:07:21.716Z,100629.28
2023-09-14T13:09:48.661Z,100627.50
2023-09-14T13:12:25.521Z,100621.34
2023-09-14T13:14:52.357Z,100621.84
2023-09-14T13:17:22.478Z,100622.41
2023-09-14T13:19:49.345Z,100626.41
2023-09-14T13:22:16.444Z,100622.78
2023-09-14T13:24:43.287Z,100621.34
2023-09-14T13:27:10.023Z,100618.94
2023-09-14T13:29:36.754Z,100611.94
2023-09-14T13:32:05.153Z,100603.53
2023-09-14T13:34:32.400Z,100612.19
2023-09-14T13:36:59.398Z,100607.34
2023-09-14T13:39:26.592Z,100604.38
2023-09-14T13:41:55.749Z,100593.59
2023-09-14T13:44:24.400Z,100590.41
2023-09-14T13:46:51.163Z,100585.88
2023-09-14T13:49:17.928Z,100589.66
2023-09-14T13:51:45.017Z,100593.03
2023-09-14T13:54:11.886Z,100594.44
2023-09-14T13:56:38.782Z,100591.19
2023-09-14T13:59:05.697Z,100593.81
2023-09-14T14:01:32.636Z,100589.44
2023-09-14T14:03:59.728Z,100598.28
2023-09-14T14:06:26.716Z,100597.84
2023-09-14T14:08:53.389Z,100595.72
2023-09-14T14:11:21.396Z,100590.84
2023-09-14T14:13:48.370Z,100583.09
2023-09-14T14:16:15.178Z,100588.38
2023-09-14T14:18:42.076Z,100590.84
2023-09-14T14:21:08.857Z,100599.09
2023-09-14T14:23:35.752Z,100595.31
2023-09-14T14:26:03.023Z,100591.47
2023-09-14T14:28:29.839Z,100585.13
2023-09-14T14:30:56.724Z,100587.59
2023-09-14T14:33:23.486Z,100587.25
2023-09-14T14:35:50.338Z,100592.69
2023-09-14T14:38:17.143Z,100582.91
2023-09-14T14:43:13.461Z,100590.56
2023-09-14T14:45:40.382Z,100601.16
2023-09-14T14:48:07.396Z,100594.69
2023-09-14T14:50:34.290Z,100596.00
2023-09-14T14:53:01.114Z,100595.06
2023-09-14T14:55:28.071Z,100592.13
2023-09-14T14:57:55.005Z,100597.88
2023-09-14T15:00:21.835Z,100597.41
2023-09-14T15:02:48.776Z,100598.56
2023-09-14T15:05:15.980Z,100600.66
2023-09-14T15:07:42.790Z,100599.03
2023-09-14T15:10:09.795Z,100609.16
2023-09-14T15:12:36.609Z,100601.41
2023-09-14T15:15:03.729Z,100606.00
2023-09-14T15:17:30.637Z,100602.72
2023-09-14T15:19:57.514Z,100609.31
2023-09-14T15:22:24.403Z,100615.31
2023-09-14T15:24:51.260Z,100614.06
2023-09-14T15:27:18.165Z,100617.38
2023-09-14T15:29:44.972Z,100616.56
2023-09-14T15:32:11.675Z,100610.38
2023-09-14T15:34:38.572Z,100610.13
2023-09-14T15:37:05.345Z,100615.91
2023-09-14T15:39:32.576Z,100616.00
2023-09-14T15:41:59.462Z,100619.78
2023-09-14T15:44:26.185Z,100615.00
2023-09-14T15:46:52.950Z,100614.56
2023-09-14T15:49:20.617Z,100609.34
2023-09-14T15:51:47.456Z,100614.22
2023-09-14T15:54:16.699Z,100606.56
2023-09-14T15:56:43.955Z,100621.59
2023-09-14T15:59:11.533Z,100614.72
2023-09-14T16:01:38.871Z,100621.53
2023-09-14T16:04:06.478Z,100629.69
2023-09-14T16:06:33.945Z,100629.19
2023-09-14T16:09:00.792Z,100626.06
2023-09-14T16:11:27.973Z,100634.66
2023-09-14T16:13:54.922Z,100632.09
2023-09-14T16:16:21.815Z,100635.72
2023-09-14T16:18:48.929Z,100634.41
2023-09-14T16:21:15.955Z,100634.88
2023-09-14T16:23:42.756Z,100643.78
2023-09-14T16:26:09.930Z,100642.13
2023-09-14T16:28:36.672Z,100648.59
2023-09-14T16:31:03.514Z,100652.53
2023-09-14T16:33:30.408Z,100653.25
2023-09-14T16:35:58.215Z,100656.19
2023-09-14T16:38:25.381Z,100646.91
2023-09-14T16:40:52.359Z,100651.63
2023-09-14T16:43:20.163Z,100653.84
2023-09-14T16:45:49.154Z,100658.66
2023-09-14T16:48:16.134Z,100660.56
2023-09-14T16:50:42.889Z,100656.34
2023-09-14T16:53:09.689Z,100657.56
2023-09-14T16:55:36.464Z,100670.28
2023-09-14T16:58:03.853Z,100667.69
2023-09-14T17:00:31.015Z,100663.81
2023-09-14T17:02:58.025Z,100671.00
2023-09-14T17:05:24.805Z,100677.13
2023-09-14T17:07:51.685Z,100673.00
2023-09-14T17:10:19.560Z,100681.59
2023-09-14T17:12:46.311Z,100672.75
2023-09-14T17:15:14.044Z,100675.38
2023-09-14T17:17:41.055Z,100677.72
2023-09-14T17:20:08.817Z,100680.69
2023-09-14T17:22:35.576Z,100685.41
2023-09-14T17:25:02.928Z,100686.56
2023-09-14T17:27:30.884Z,100684.22
2023-09-14T17:29:57.731Z,100683.16
2023-09-14T17:32:24.412Z,100681.63
2023-09-14T17:34:51.269Z,100684.69
2023-09-14T17:37:18.996Z,100692.47
2023-09-14T17:39:45.889Z,100688.81
2023-09-14T17:42:12.717Z,100687.31
2023-09-14T17:44:42.273Z,100688.34
2023-09-14T17:47:09.822Z,100696.00
2023-09-14T17:49:36.724Z,100684.56
2023-09-14T17:52:06.701Z,100690.94
2023-09-14T17:54:35.142Z,100692.19
2023-09-14T17:57:02.688Z,100701.25
2023-09-14T17:59:29.441Z,100703.50
2023-09-14T18:01:56.308Z,100702.59
2023-09-14T18:04:23.346Z,100701.38
2023-09-14T18:06:50.858Z,100709.25
2023-09-14T18:09:17.594Z,100709.72
2023-09-14T18:11:44.384Z,100702.81
2023-09-14T18:14:11.187Z,100716.34
2023-09-14T18:16:39.324Z,100725.66
2023-09-14T18:19:06.313Z,100721.91
2023-09-14T18:21:33.129Z,100724.38
2023-09-14T18:23:59.864Z,100728.00
2023-09-14T18:26:26.923Z,100728.44
2023-09-14T18:28:58.115Z,100731.81
2023-09-14T18:31:25.296Z,100727.41
2023-09-14T18:33:52.117Z,100735.69
2023-09-14T18:36:18.962Z,100739.44
2023-09-14T18:38:45.977Z,100742.16
2023-09-14T18:41:15.041Z,100743.66
2023-09-14T18:43:42.057Z,100748.25
2023-09-14T18:46:14.088Z,100751.72
2023-09-14T18:51:08.541Z,100745.81
2023-09-14T18:53:36.003Z,100749.56
2023-09-14T18:56:02.793Z,100745.47
2023-09-14T19:00:59.170Z,100752.44
2023-09-14T19:03:27.488Z,100749.16
2023-09-14T19:05:56.491Z,100750.91
2023-09-14T19:08:23.619Z,100751.25
2023-09-14T19:10:56.724Z,100753.00
2023-09-14T19:13:23.710Z,100759.59
2023-09-14T19:15:51.156Z,100747.22
2023-09-14T19:18:18.272Z,100753.69
2023-09-14T19:20:49.269Z,100751.22
2023-09-14T19:23:16.342Z,100756.41
2023-09-14T19:25:44.271Z,100748.53
2023-09-14T19:28:11.528Z,100758.94
2023-09-14T19:30:42.510Z,100754.78
2023-09-14T19:33:09.331Z,100747.41
2023-09-14T19:35:36.098Z,100755.06
2023-09-14T19:38:03.133Z,100747.81
2023-09-14T19:40:30.091Z,100752.63
2023-09-14T19:42:57.287Z,100756.34
2023-09-14T19:45:24.321Z,100753.41
2023-09-14T19:47:53.032Z,100759.47
2023-09-14T19:50:21.649Z,100749.25
2023-09-14T19:52:48.408Z,100756.16
2023-09-14T19:55:15.240Z,100754.97
2023-09-14T19:57:42.058Z,100754.19
2023-09-14T20:00:09.287Z,100758.56
2023-09-14T20:02:36.356Z,100763.38
2023-09-14T20:05:04.721Z,100762.75
2023-09-14T20:07:31.689Z,100763.59
2023-09-14T20:09:58.555Z,100759.81
2023-09-14T20:12:25.688Z,100764.25
2023-09-14T20:14:52.631Z,100764.53
2023-09-14T20:17:19.501Z,100767.69
2023-09-14T20:19:46.482Z,100771.13
2023-09-14T20:22:15.203Z,100767.84
2023-09-14T20:24:44.773Z,100766.34
2023-09-14T20:27:12.224Z,100772.06
2023-09-14T20:29:39.081Z,100775.03
2023-09-14T20:32:05.794Z,100775.31
2023-09-14T20:34:32.633Z,100772.56
2023-09-14T20:36:59.503Z,100776.72
2023-09-14T20:39:29.620Z,100772.06
2023-09-14T20:41:57.766Z,100773.84
2023-09-14T20:44:25.383Z,100785.41
2023-09-14T20:46:52.488Z,100787.06
2023-09-14T20:49:22.212Z,100794.88
2023-09-14T20:51:49.451Z,100788.03
2023-09-14T20:54:20.971Z,100791.38
2023-09-14T20:56:48.371Z,100796.28
2023-09-14T20:59:18.183Z,100785.84
2023-09-14T21:01:45.968Z,100805.81
2023-09-14T21:04:12.985Z,100797.06
2023-09-14T21:06:40.220Z,100810.84
2023-09-14T21:09:08.045Z,100805.00
2023-09-14T21:11:38.190Z,100809.38
2023-09-14T21:14:08.377Z,100816.72
2023-09-14T21:16:36.376Z,100815.00
2023-09-14T21:19:03.359Z,100808.75
2023-09-14T21:21:30.391Z,100815.66
2023-09-14T21:23:57.282Z,100818.41
2023-09-14T21:26:24.062Z,100815.28
2023-09-14T21:28:50.804Z,100808.63
2023-09-14T21:31:17.760Z,100814.06
2023-09-14T21:33:45.382Z,100814.91
2023-09-14T21:36:12.761Z,100817.63
2023-09-14T21:38:39.755Z,100816.56
2023-09-14T21:41:06.867Z,100822.41
2023-09-14T21:43:37.630Z,100813.09
2023-09-14T21:46:09.457Z,100811.00
2023-09-14T21:48:36.641Z,100814.56
2023-09-14T21:51:04.015Z,100807.50
2023-09-14T21:53:30.958Z,100808.72
2023-09-14T21:55:57.807Z,100802.56
2023-09-14T21:58:25.698Z,100811.47
2023-09-14T22:00:53.194Z,100812.09
2023-09-14T22:03:20.936Z,100802.78
2023-09-14T22:05:51.469Z,100807.50
2023-09-14T22:08:18.772Z,100802.81
2023-09-14T22:10:46.116Z,100805.91
2023-09-14T22:13:13.536Z,100798.78
2023-09-14T22:15:45.162Z,100794.19
2023-09-14T22:18:13.663Z,100789.13
2023-09-14T22:20:40.597Z,100785.88
2023-09-14T22:23:10.644Z,100800.00
2023-09-14T22:25:42.239Z,100807.00
2023-09-14T22:28:09.358Z,100802.16
2023-09-14T22:30:37.120Z,100801.06
2023-09-14T22:33:05.366Z,100799.22
2023-09-14T22:35:33.161Z,100801.00
2023-09-14T22:38:00.136Z,100796.97
2023-09-14T22:40:26.923Z,100802.47
2023-09-14T22:42:54.001Z,100801.03
2023-09-14T22:45:22.224Z,100793.16
2023-09-14T22:47:50.079Z,100795.78
2023-09-14T22:50:17.661Z,100796.84
2023-09-14T22:52:45.708Z,100802.13
2023-09-14T22:55:13.713Z,100795.16
2023-09-14T22:57:41.513Z,100800.09
2023-09-14T23:00:12.180Z,100797.22
2023-09-14T23:02:39.708Z,100798.06
2023-09-14T23:05:11.206Z,100796.78
2023-09-14T23:07:39.986Z,100800.19
2023-09-14T23:10:11.647Z,100801.41
2023-09-14T23:12:41.817Z,100807.72
2023-09-14T23:15:10.442Z,100800.66
2023-09-14T23:17:38.675Z,100801.72
2023-09-14T23:20:37.420Z,100802.22
2023-09-14T23:23:04.543Z,100807.41
2023-09-14T23:25:32.406Z,100808.31
2023-09-14T23:27:59.869Z,100817.47
2023-09-14T23:30:28.304Z,100815.59
2023-09-14T23:32:55.229Z,100816.28
2023-09-14T23:35:24.161Z,100816.09
2023-09-14T23:37:52.309Z,100818.41
2023-09-14T23:40:36.003Z,100819.69
2023-09-14T23:43:11.524Z,100820.94
2023-09-14T23:45:38.866Z,100823.81
2023-09-14T23:48:08.567Z,100819.72
2023-09-14T23:50:36.546Z,100822.03
2023-09-14T23:53:03.806Z,100823.34
2023-09-14T23:55:30.855Z,100825.59
2023-09-14T23:57:58.145Z,100816.66
